This is the latest recevied weather packets stored in our database for station/object KE8CZD. If no packets are shown the sender has not sent any weather packets the latest 10 day(s).
| Time | Temp. | Humidity | Pressure | Rain* | Wind** | Luminosity | Snow |
|---|---|---|---|---|---|---|---|
| 1777947164 | 17.22° C | 69% | 996.6 hPa | 0 mm | - | - | - |
| 1777946805 | 17.22° C | 69% | 996.5 hPa | 0 mm | - | - | - |
| 1777946445 | 17.22° C | 69% | 996.4 hPa | 0 mm | - | - | - |
| 1777946085 | 17.22° C | 68% | 996.4 hPa | 0 mm | - | - | - |
| 1777945725 | 17.78° C | 67% | 996.3 hPa | 0 mm | - | - | - |
| 1777945364 | 17.78° C | 65% | 996.3 hPa | 0 mm | - | - | - |
| 1777945004 | 17.78° C | 64% | 996.3 hPa | 0 mm | - | - | - |
| 1777944644 | 17.78° C | 64% | 996.3 hPa | 0 mm | - | - | - |
| 1777944285 | 17.78° C | 65% | 996.1 hPa | 0 mm | - | - | - |
| 1777943925 | 17.78° C | 65% | 996 hPa | 0 mm | - | - | - |
| 1777943565 | 17.78° C | 65% | 996 hPa | 0 mm | - | - | - |
| 1777943205 | 17.78° C | 64% | 996 hPa | 0 mm | - | - | - |
| 1777942846 | 17.78° C | 64% | 996 hPa | 0 mm | - | - | - |
| 1777942484 | 18.33° C | 63% | 995.9 hPa | 0 mm | - | - | - |
| 1777942124 | 18.33° C | 63% | 995.8 hPa | 0 mm | - | - | - |
| 1777941765 | 18.33° C | 62% | 995.7 hPa | 0 mm | - | - | - |
| 1777941404 | 18.33° C | 62% | 995.9 hPa | 0 mm | - | - | - |
| 1777941044 | 18.33° C | 63% | 996 hPa | 0 mm | - | - | - |
| 1777940684 | 17.78° C | 62% | 995.7 hPa | 0 mm | - | - | - |
| 1777940324 | 17.78° C | 61% | 995.6 hPa | 0 mm | - | - | - |
| 1777939964 | 18.33° C | 60% | 995.5 hPa | 0 mm | - | - | - |
| 1777939605 | 18.33° C | 57% | 995.6 hPa | 0 mm | - | - | - |
| 1777939245 | 18.33° C | 56% | 995.6 hPa | 0 mm | - | - | - |
| 1777938884 | 20° C | 50% | 995.6 hPa | 0 mm | - | - | - |
| 1777938524 | 20.56° C | 42% | 995.2 hPa | 0 mm | - | - | - |
* Rain latest hour (hover to see other rain measurements)
** Current wind speed in m/s (hover to see current wind gust speed)